»·PEaware :: N120SU KSFO-KSJC

N120SU :: KSFO-KSJC

FLIGHT INFORMATION

Flight Status: Arrived
Operator: Privately registered:
United States
More flights under this callsign
Pilot: Oklahoma State Flight Center (8673)
Aircraft: CESSNA 172 SKYHAWK
(C172)
More flights by this aircraft type
Origin: KSFO San Francisco Intl
United States
Destination: KSJC Mineta San Jose Intl
United States
More flights between these airports :: More routes between these airports
Route: +SFO4 NORMM OSI
File this flight plan on PilotEdge
Remarks:
Altitude:
(Current/Filed)
5,000ft
Speed:
(Current/Filed)
110kts
Departed: 10-Jan-18 02:19 PM
Arrived: 10-Jan-18 02:43 PM
Distance/Time
Traveled:
26nm/0:24
Distance/Time
To Go:
Arrived

Flight Plot

Page will automatically refresh every two minutes.

Flight plan parsing failed; only flown route is shown


Map Options




Map Legend


Flown Route
Filed Route
Departure Airport
Arrival Airport
Navaid (VOR, NDB)
Fix

Horizontal Profiles

Position Reports

Time Latitude Longitude Heading Altitude Ground
Speed
10-Jan-18 13:44 37.618330 -122.384114 16 16ft 0kts
10-Jan-18 13:45 37.618331 -122.384113 16 16ft 0kts
10-Jan-18 13:46 37.618332 -122.384113 16 16ft 0kts
10-Jan-18 13:47 37.618333 -122.384112 16 16ft 0kts
10-Jan-18 13:48 37.618334 -122.384112 16 16ft 0kts
10-Jan-18 13:49 37.618335 -122.384111 16 16ft 0kts
10-Jan-18 13:50 37.618336 -122.384111 16 16ft 0kts
10-Jan-18 13:51 37.618337 -122.384111 16 16ft 0kts
10-Jan-18 13:52 37.618339 -122.384110 16 16ft 0kts
10-Jan-18 13:53 37.618340 -122.384110 16 16ft 0kts
10-Jan-18 13:54 37.618341 -122.384109 16 16ft 0kts
10-Jan-18 13:55 37.618342 -122.384109 16 16ft 0kts
10-Jan-18 13:56 37.618343 -122.384108 16 16ft 0kts
10-Jan-18 13:57 37.618344 -122.384108 16 16ft 0kts
10-Jan-18 13:58 37.618345 -122.384108 16 16ft 0kts
10-Jan-18 13:59 37.618346 -122.384107 16 16ft 0kts
10-Jan-18 14:00 37.618347 -122.384107 16 16ft 0kts
10-Jan-18 14:03 37.618351 -122.384105 17 16ft 0kts
10-Jan-18 14:04 37.618352 -122.384105 17 16ft 0kts
10-Jan-18 14:05 37.618353 -122.384105 17 16ft 0kts
10-Jan-18 14:06 37.618354 -122.384104 17 16ft 0kts
10-Jan-18 14:07 37.618355 -122.384104 17 16ft 0kts
10-Jan-18 14:08 37.618356 -122.384103 17 16ft 0kts
10-Jan-18 14:09 37.618358 -122.384103 17 16ft 0kts
10-Jan-18 14:10 37.618359 -122.384102 17 16ft 0kts
10-Jan-18 14:11 37.618360 -122.384102 17 16ft 0kts
10-Jan-18 14:12 37.618361 -122.384101 17 16ft 0kts
10-Jan-18 14:13 37.618362 -122.384101 17 16ft 0kts
10-Jan-18 14:14 37.618363 -122.384101 17 16ft 0kts
10-Jan-18 14:15 37.618364 -122.384100 17 16ft 0kts
10-Jan-18 14:16 37.618365 -122.384100 17 16ft 0kts
10-Jan-18 14:17 37.618366 -122.384099 17 16ft 0kts
10-Jan-18 14:18 37.618368 -122.384099 17 16ft 0kts
10-Jan-18 14:19 37.618555 -122.383899 76 16ft 4kts
10-Jan-18 14:20 37.619597 -122.382277 50 16ft 10kts
10-Jan-18 14:21 37.618849 -122.379717 72 16ft 12kts
10-Jan-18 14:22 37.617392 -122.375882 110 16ft 10kts
10-Jan-18 14:23 37.614336 -122.368625 134 16ft 24kts
10-Jan-18 14:24 37.610681 -122.359270 41 16ft 14kts
10-Jan-18 14:25 37.613018 -122.361418 297 16ft 58kts
10-Jan-18 14:26 37.622436 -122.386089 306 930ft 78kts
10-Jan-18 14:27 37.633458 -122.409357 299 1866ft 78kts
10-Jan-18 14:28 37.643973 -122.433966 299 2702ft 80kts
10-Jan-18 14:29 37.653557 -122.459325 258 3414ft 82kts
10-Jan-18 14:30 37.632700 -122.456475 158 3980ft 85kts
10-Jan-18 14:31 37.611591 -122.442398 148 4487ft 86kts
10-Jan-18 14:32 37.590736 -122.427024 148 4880ft 92kts
10-Jan-18 14:33 37.566244 -122.408995 149 4871ft 98kts
10-Jan-18 14:34 37.544940 -122.393239 148 4803ft 84kts
10-Jan-18 14:35 37.530995 -122.365535 103 4643ft 109kts
10-Jan-18 14:36 37.522641 -122.326881 103 4110ft 119kts
10-Jan-18 14:37 37.514087 -122.287276 103 3400ft 114kts
10-Jan-18 14:38 37.506527 -122.249122 94 2810ft 106kts
10-Jan-18 14:39 37.503682 -122.211617 93 2572ft 108kts
10-Jan-18 14:40 37.500845 -122.173759 93 1976ft 108kts
10-Jan-18 14:41 37.497933 -122.134513 93 1813ft 119kts
10-Jan-18 14:42 37.491183 -122.092786 103 1807ft 122kts
10-Jan-18 14:43 37.477079 -122.058261 129 1882ft 103kts
10-Jan-18 14:44 37.456620 -122.032872 139 1848ft 104kts
10-Jan-18 14:45 37.436052 -122.010360 136 1755ft 86kts
10-Jan-18 14:46 37.416212 -121.988855 137 1336ft 98kts
10-Jan-18 14:47 37.395624 -121.966001 136 726ft 98kts
10-Jan-18 14:48 37.375322 -121.943874 138 235ft 82kts
10-Jan-18 14:49 37.366888 -121.935002 225 65ft 10kts
10-Jan-18 14:50 37.365499 -121.936921 228 65ft 13kts

Navigation Log

Ident Type
Flight plan parsing failed, navigation log unavailable